createdAt,value
2022-12-08T00:09:02.633Z,79.18
2022-12-08T00:19:03.036Z,78.69
2022-12-08T00:29:03.084Z,78.91
2022-12-08T00:39:03.833Z,79.36
2022-12-08T00:49:03.468Z,79.15
2022-12-08T00:59:05.437Z,78.97
2022-12-08T01:09:03.890Z,79.29
2022-12-08T01:19:05.597Z,79.22
2022-12-08T01:29:04.240Z,80.05
2022-12-08T01:39:06.811Z,80.37
2022-12-08T01:49:04.632Z,80.62
2022-12-08T01:59:05.055Z,81.56
2022-12-08T02:09:05.105Z,81.87
2022-12-08T02:19:30.295Z,81.49
2022-12-08T02:29:06.614Z,80.86
2022-12-08T02:39:05.941Z,81.52
2022-12-08T02:49:05.988Z,81.52
2022-12-08T02:59:06.322Z,81.67
2022-12-08T03:09:06.347Z,81.87
2022-12-08T03:19:06.680Z,81.77
2022-12-08T03:29:06.718Z,81.35
2022-12-08T03:39:07.064Z,80.55
2022-12-08T03:49:07.093Z,80.45
2022-12-08T03:59:07.526Z,80.35
2022-12-08T04:09:07.656Z,80.17
2022-12-08T04:19:07.894Z,80.49
2022-12-08T04:29:07.935Z,80.38
2022-12-08T04:39:08.265Z,80.10
2022-12-08T04:49:08.305Z,81.15
2022-12-08T04:59:08.537Z,81.60
2022-12-08T05:09:08.567Z,81.71
2022-12-08T05:19:09.265Z,80.77
2022-12-08T05:29:08.892Z,81.29
2022-12-08T05:39:11.630Z,81.50
2022-12-08T05:49:09.263Z,81.71
2022-12-08T05:59:09.657Z,80.98
2022-12-08T06:09:09.693Z,80.80
2022-12-08T06:19:10.015Z,81.12
2022-12-08T06:29:10.039Z,81.57
2022-12-08T06:39:10.356Z,82.69
2022-12-08T06:49:10.378Z,83.53
2022-12-08T06:59:10.757Z,83.64
2022-12-08T07:09:10.806Z,84.22
2022-12-08T07:19:12.151Z,84.27
2022-12-08T07:29:11.186Z,83.53
2022-12-08T07:39:11.604Z,82.38
2022-12-08T07:49:11.644Z,83.07
2022-12-08T07:59:12.081Z,80.52
2022-12-08T08:09:12.167Z,79.33
2022-12-08T08:19:12.435Z,79.99
2022-12-08T08:29:12.671Z,81.18
2022-12-08T08:39:12.921Z,80.93
2022-12-08T08:49:13.166Z,80.48
2022-12-08T08:59:13.506Z,78.77
2022-12-08T09:09:13.530Z,76.57
2022-12-08T09:19:13.865Z,74.95
2022-12-08T09:29:13.887Z,73.52
2022-12-08T09:39:14.232Z,73.03
2022-12-08T09:49:14.272Z,72.34
2022-12-08T09:59:14.509Z,70.92
2022-12-08T10:09:18.353Z,69.09
2022-12-08T10:19:15.814Z,65.81
2022-12-08T10:29:15.106Z,65.81
2022-12-08T10:39:15.152Z,65.34
2022-12-08T10:49:15.390Z,65.17
2022-12-08T10:59:15.615Z,63.85
2022-12-08T11:09:15.911Z,59.31
2022-12-08T11:19:16.134Z,61.05
2022-12-08T11:29:16.460Z,58.82
2022-12-08T11:39:16.498Z,56.70
2022-12-08T11:49:16.733Z,56.08
2022-12-08T11:59:21.768Z,55.28
2022-12-08T12:09:17.060Z,53.76
2022-12-08T12:19:17.301Z,56.13
2022-12-08T12:29:17.530Z,60.19
2022-12-08T12:39:17.632Z,56.34
2022-12-08T12:49:17.855Z,61.97
2022-12-08T12:59:18.033Z,56.26
2022-12-08T13:09:18.256Z,58.92
2022-12-08T13:19:18.509Z,58.53
2022-12-08T13:29:18.748Z,59.07
2022-12-08T13:39:19.156Z,60.07
2022-12-08T13:59:20.485Z,62.41
2022-12-08T14:09:20.855Z,63.68
2022-12-08T14:19:19.945Z,65.60
2022-12-08T14:29:20.244Z,65.77
2022-12-08T14:39:20.304Z,67.00
2022-12-08T14:49:20.647Z,67.63
2022-12-08T14:59:20.693Z,68.62
2022-12-08T15:09:20.946Z,70.31
2022-12-08T15:19:21.211Z,70.66
2022-12-08T15:29:21.317Z,72.04
2022-12-08T15:39:21.355Z,73.14
2022-12-08T15:49:21.727Z,75.64
2022-12-08T15:59:21.781Z,76.47
2022-12-08T16:09:25.262Z,77.03
2022-12-08T16:19:23.080Z,77.06
2022-12-08T16:29:22.433Z,78.14
2022-12-08T16:39:22.562Z,78.56
2022-12-08T16:49:22.697Z,79.88
2022-12-08T16:59:22.728Z,80.54
2022-12-08T17:09:23.095Z,80.23
2022-12-08T17:19:23.280Z,80.54
2022-12-08T17:29:23.434Z,82.18
2022-12-08T17:39:23.479Z,84.56
2022-12-08T17:49:24.014Z,85.29
2022-12-08T17:59:24.766Z,84.66
2022-12-08T18:09:24.418Z,86.52
2022-12-08T18:19:45.361Z,85.85
2022-12-08T18:29:24.666Z,85.81
2022-12-08T18:39:24.860Z,87.35
2022-12-08T18:49:24.914Z,86.58
2022-12-08T18:59:25.450Z,80.47
2022-12-08T19:09:25.392Z,82.12
2022-12-08T19:19:25.739Z,77.51
2022-12-08T19:29:25.676Z,77.00
2022-12-08T19:39:26.164Z,77.62
2022-12-08T19:49:30.541Z,79.47
2022-12-08T19:59:26.406Z,81.73
2022-12-08T20:09:26.753Z,83.20
2022-12-08T20:19:26.735Z,82.46
2022-12-08T20:29:26.900Z,81.28
2022-12-08T20:39:26.939Z,80.72
2022-12-08T20:49:32.895Z,80.41
2022-12-08T20:59:28.570Z,81.59
2022-12-08T21:09:28.023Z,82.74
2022-12-08T21:19:28.318Z,82.84
2022-12-08T21:29:28.024Z,82.84
2022-12-08T21:39:27.908Z,84.73
2022-12-08T21:49:28.163Z,84.24
2022-12-08T21:59:28.501Z,84.00
2022-12-08T22:09:28.717Z,84.45
2022-12-08T22:19:29.044Z,84.66
2022-12-08T22:29:28.959Z,84.03
2022-12-08T22:39:29.238Z,83.16
2022-12-08T22:49:31.164Z,80.34
2022-12-08T22:59:29.291Z,80.82
2022-12-08T23:09:29.456Z,83.68
2022-12-08T23:19:29.619Z,84.80
2022-12-08T23:29:29.821Z,83.97
2022-12-08T23:39:29.852Z,82.99
2022-12-08T23:49:30.321Z,83.68
2022-12-08T23:59:30.535Z,84.66
